West Valley, New York
Current Conditions -  °F | °C
As of 7:55 PM on Tuesday 21 Oct 2014 (Local Time) from KOLE Reporting Station
Overcast Overcast  
Wind Chill: 42°   Ceiling: 500
Heat Index: 45°   Visibility: 10mi
Dew Point: 45°   Wind: 5mph
Humidity: 100%   Direction: 10°N
Pressure: 29.95"   Gusts: NA
Location:  42.4°N, 78.61°W
Report Text: KOLE 212355Z AUTO 01004KT 10SM BKN005 BKN011 OVC017 07/07 A2995 RMK AO2
Loading
Personal Weather Stations






























Interactive Weather Map
Tropical Storm Tracking
New forecast layout! Learn more

10-Day Weather Forecast

Advertisements
Track Severe Weather on mobile